Time;durP1;ratioP1;P1;durP2;ratioP2;P2;SDS_P1;SDS_P2;PMS_P1;PMS_P2;Temp;Humidity;BMP_temperature;BMP_pressure;BME280_temperature;BME280_humidity;BME280_pressure;Samples;Min_cycle;Max_cycle;Signal;HPM_P1;HPM_P2
2021/11/03 00:02:12;;;;;;;13.65;7.07;;;8.00;99.90;;;;;;5042784;28;20280;-76
2021/11/03 00:04:40;;;;;;;18.30;8.02;;;8.10;99.90;;;;;;5042936;28;20026;-76
2021/11/03 00:07:06;;;;;;;16.45;8.10;;;8.00;99.90;;;;;;5042750;28;20029;-75
2021/11/03 00:09:32;;;;;;;18.73;7.13;;;8.00;99.90;;;;;;5044134;28;20081;-78
2021/11/03 00:11:58;;;;;;;17.63;6.72;;;8.00;99.90;;;;;;5044159;28;20062;-75
2021/11/03 00:14:24;;;;;;;14.25;6.60;;;8.00;99.90;;;;;;5044089;28;20017;-77
2021/11/03 00:16:49;;;;;;;20.98;8.13;;;8.00;99.90;;;;;;5044328;28;20029;-78
2021/11/03 00:19:15;;;;;;;17.58;7.85;;;8.00;99.90;;;;;;5047268;28;20042;-78
2021/11/03 00:21:41;;;;;;;16.55;7.55;;;7.90;99.90;;;;;;5046393;28;20029;-77
2021/11/03 00:24:07;;;;;;;18.70;7.45;;;7.90;99.90;;;;;;5046339;28;20033;-76
2021/11/03 00:26:33;;;;;;;16.25;7.03;;;7.90;99.90;;;;;;5046654;28;20026;-76
2021/11/03 00:28:58;;;;;;;16.55;7.30;;;7.90;99.90;;;;;;5047414;28;20065;-77
2021/11/03 00:31:25;;;;;;;23.30;7.90;;;7.90;99.90;;;;;;5047981;28;20083;-77
2021/11/03 00:33:50;;;;;;;18.20;6.20;;;7.90;99.90;;;;;;5047687;28;20060;-77
2021/11/03 00:36:16;;;;;;;17.77;7.38;;;7.90;99.90;;;;;;5046303;28;20025;-76
2021/11/03 00:38:42;;;;;;;17.75;7.43;;;7.90;99.90;;;;;;5046297;28;20037;-77
2021/11/03 00:41:08;;;;;;;17.77;7.38;;;7.90;99.90;;;;;;5046089;28;20520;-76
2021/11/03 00:43:34;;;;;;;16.58;7.35;;;7.80;99.90;;;;;;5046350;28;20032;-76
2021/11/03 00:46:01;;;;;;;17.40;6.82;;;7.90;99.90;;;;;;5047679;28;20109;-77
2021/11/03 00:48:26;;;;;;;15.55;6.82;;;7.90;99.90;;;;;;5047308;28;20029;-77
2021/11/03 00:50:52;;;;;;;15.30;6.50;;;7.80;99.90;;;;;;5047455;28;20026;-76
2021/11/03 00:53:19;;;;;;;15.18;6.63;;;7.90;99.90;;;;;;5046261;28;20033;-77
2021/11/03 00:55:45;;;;;;;22.65;7.60;;;7.90;99.90;;;;;;5046103;28;20493;-76
2021/11/03 00:58:11;;;;;;;15.98;5.80;;;7.90;99.90;;;;;;5047417;28;20025;-75
2021/11/03 01:00:37;;;;;;;15.82;7.03;;;7.90;99.90;;;;;;5047210;28;20051;-76
2021/11/03 01:03:05;;;;;;;14.50;6.95;;;7.90;99.90;;;;;;5047466;28;20030;-76
2021/11/03 01:05:37;;;;;;;15.18;6.68;;;7.90;99.90;;;;;;5045763;28;20098;-77
2021/11/03 01:08:04;;;;;;;15.27;7.13;;;7.90;99.90;;;;;;5045918;28;20426;-76
2021/11/03 01:10:29;;;;;;;14.05;6.07;;;7.90;99.90;;;;;;5045627;28;20093;-75
2021/11/03 01:12:55;;;;;;;13.25;6.13;;;7.90;99.90;;;;;;5047306;28;20032;-77
2021/11/03 01:15:23;;;;;;;12.45;5.90;;;7.80;99.90;;;;;;5045994;28;20129;-75
2021/11/03 01:17:52;;;;;;;10.65;5.55;;;7.80;99.90;;;;;;5045627;28;20389;-76
2021/11/03 01:20:17;;;;;;;17.77;7.05;;;7.80;99.90;;;;;;5047302;28;20033;-76
2021/11/03 01:22:43;;;;;;;14.02;6.07;;;7.80;99.90;;;;;;5045925;28;20501;-77
2021/11/03 01:25:11;;;;;;;16.60;7.18;;;7.80;99.90;;;;;;5045380;28;20044;-76
2021/11/03 01:27:37;;;;;;;17.30;6.30;;;7.80;99.90;;;;;;5045422;28;20045;-76
2021/11/03 01:30:05;;;;;;;12.73;6.53;;;7.80;99.90;;;;;;5044675;28;20021;-77
2021/11/03 01:32:31;;;;;;;16.15;7.00;;;7.80;99.90;;;;;;5045173;28;20029;-77
2021/11/03 01:34:56;;;;;;;25.08;7.35;;;7.80;99.90;;;;;;5046857;28;20028;-77
2021/11/03 01:37:24;;;;;;;15.40;6.70;;;7.80;99.90;;;;;;5045688;28;20021;-77
2021/11/03 01:39:49;;;;;;;12.57;6.45;;;7.80;99.90;;;;;;5045364;28;20034;-77
2021/11/03 01:42:15;;;;;;;14.48;6.53;;;7.80;99.90;;;;;;5045487;28;20048;-78
2021/11/03 01:44:41;;;;;;;17.33;5.20;;;7.70;99.90;;;;;;5046766;28;20109;-76
2021/11/03 01:47:34;;;;;;;14.95;6.22;;;7.70;99.90;;;;;;5044469;28;20030;-76
2021/11/03 01:50:01;;;;;;;15.32;5.80;;;7.80;99.90;;;;;;5046076;28;20104;-76
2021/11/03 01:52:27;;;;;;;12.48;6.25;;;7.70;99.90;;;;;;5046707;28;20075;-77
2021/11/03 01:54:56;;;;;;;16.83;6.88;;;7.80;99.90;;;;;;5044778;28;20033;-77
2021/11/03 01:57:31;;;;;;;15.05;6.75;;;7.80;99.90;;;;;;5045822;28;20075;-78
2021/11/03 02:00:06;;;;;;;8.57;4.63;;;7.80;99.90;;;;;;5045092;28;20034;-76
2021/11/03 02:02:33;;;;;;;19.38;7.35;;;7.80;99.90;;;;;;5044911;28;20033;-76
2021/11/03 02:04:59;;;;;;;12.65;6.55;;;7.80;99.90;;;;;;5044730;28;20031;-77
2021/11/03 02:07:26;;;;;;;21.88;7.40;;;7.80;99.90;;;;;;5045042;28;20025;-76
2021/11/03 02:09:53;;;;;;;11.23;5.75;;;7.80;99.90;;;;;;5046761;28;20085;-77
2021/11/03 02:12:24;;;;;;;16.20;6.05;;;7.70;99.90;;;;;;5046531;28;20022;-76
2021/11/03 02:14:50;;;;;;;15.27;5.25;;;7.70;99.90;;;;;;5044885;28;20021;-77
2021/11/03 02:17:19;;;;;;;17.95;5.78;;;7.60;99.90;;;;;;5045707;28;20080;-77
2021/11/03 02:19:46;;;;;;;13.60;5.75;;;7.60;99.90;;;;;;5044440;28;20042;-78
2021/11/03 02:22:37;;;;;;;15.85;6.28;;;7.50;99.90;;;;;;5044290;28;20053;-75
2021/11/03 02:25:07;;;;;;;11.75;5.75;;;7.50;99.90;;;;;;5045782;28;20092;-77
2021/11/03 02:27:35;;;;;;;14.00;6.40;;;7.50;99.90;;;;;;5044325;28;20053;-78
2021/11/03 02:30:01;;;;;;;17.90;7.03;;;7.50;99.90;;;;;;5044202;28;20025;-77
2021/11/03 02:32:32;;;;;;;12.05;6.25;;;7.50;99.90;;;;;;5043870;28;20112;-77
2021/11/03 02:34:58;;;;;;;12.38;5.68;;;7.60;99.90;;;;;;5043851;28;20025;-75
2021/11/03 02:37:36;;;;;;;14.57;6.70;;;7.60;99.90;;;;;;5045301;28;20040;-78
2021/11/03 02:40:20;;;;;;;11.55;6.03;;;7.60;99.90;;;;;;5043518;28;20033;-77
2021/11/03 02:42:57;;;;;;;17.45;7.47;;;7.60;99.90;;;;;;5044440;28;20029;-77
2021/11/03 02:45:50;;;;;;;12.88;5.88;;;7.70;99.90;;;;;;5043398;28;20060;-76
2021/11/03 02:48:17;;;;;;;16.05;6.13;;;7.70;99.90;;;;;;5035058;28;20043;-78
2021/11/03 02:51:08;;;;;;;11.98;6.22;;;7.80;99.90;;;;;;5045415;28;20029;-75
2021/11/03 02:53:37;;;;;;;13.30;6.10;;;7.80;99.90;;;;;;5044960;28;20029;-77
2021/11/03 02:56:04;;;;;;;17.55;6.47;;;7.80;99.90;;;;;;5043724;28;20027;-76
2021/11/03 02:58:30;;;;;;;17.65;6.72;;;7.80;99.90;;;;;;5044536;28;20497;-79
2021/11/03 03:11:04;;;;;;;14.88;6.57;;;7.90;99.90;;;;;;5027471;28;20051;-78
2021/11/03 03:13:30;;;;;;;14.45;7.32;;;8.00;99.90;;;;;;5032524;28;20029;-76
2021/11/03 03:15:56;;;;;;;12.13;5.72;;;8.00;99.90;;;;;;5043497;28;20382;-76
2021/11/03 03:18:22;;;;;;;17.08;7.25;;;8.10;99.90;;;;;;5043827;28;20033;-75
2021/11/03 03:20:47;;;;;;;13.73;6.25;;;8.10;99.90;;;;;;5044455;28;20044;-76
2021/11/03 03:23:13;;;;;;;17.17;7.28;;;8.10;99.90;;;;;;5043043;28;20037;-77
2021/11/03 03:25:46;;;;;;;15.90;6.60;;;8.10;99.90;;;;;;5042864;28;20021;-78
2021/11/03 03:28:17;;;;;;;18.38;7.68;;;8.10;99.90;;;;;;5044549;28;20116;-80
2021/11/03 03:30:49;;;;;;;13.68;6.72;;;8.10;99.90;;;;;;5043981;28;20151;-77
2021/11/03 03:33:14;;;;;;;15.05;6.85;;;8.10;99.90;;;;;;5043252;28;20116;-77
2021/11/03 03:35:40;;;;;;;22.45;7.63;;;8.10;99.90;;;;;;5044498;28;20072;-76
2021/11/03 03:38:06;;;;;;;17.73;7.72;;;8.10;99.90;;;;;;5042944;28;20045;-76
2021/11/03 03:40:32;;;;;;;16.00;7.07;;;8.20;99.90;;;;;;5044245;28;20041;-77
2021/11/03 03:42:58;;;;;;;15.10;7.38;;;8.10;99.90;;;;;;5043301;28;20026;-79
2021/11/03 03:45:23;;;;;;;19.45;8.15;;;8.10;99.90;;;;;;5044613;28;20029;-75
2021/11/03 03:47:49;;;;;;;17.50;7.15;;;8.10;99.90;;;;;;5044385;28;20029;-77
2021/11/03 03:50:15;;;;;;;13.60;6.80;;;8.20;99.90;;;;;;5042901;28;20038;-77
2021/11/03 03:52:41;;;;;;;19.15;7.47;;;8.20;99.90;;;;;;5042617;28;20021;-77
2021/11/03 03:55:08;;;;;;;17.10;7.38;;;8.20;99.90;;;;;;5044282;28;20025;-76
2021/11/03 03:57:34;;;;;;;14.45;7.75;;;8.30;99.90;;;;;;5042828;28;20032;-76
2021/11/03 03:59:59;;;;;;;22.00;8.32;;;8.20;99.90;;;;;;5042913;28;20061;-76
2021/11/03 04:02:25;;;;;;;15.88;7.03;;;8.20;99.90;;;;;;5042916;28;20036;-78
2021/11/03 04:04:51;;;;;;;18.35;7.35;;;8.20;99.90;;;;;;5044507;28;20088;-78
2021/11/03 04:07:17;;;;;;;17.45;8.00;;;8.20;99.90;;;;;;5044301;28;20030;-77
2021/11/03 04:09:42;;;;;;;17.05;6.97;;;8.20;99.90;;;;;;5044128;28;20518;-74
2021/11/03 04:12:08;;;;;;;22.05;7.90;;;8.20;99.90;;;;;;5043184;28;20074;-76
2021/11/03 04:14:34;;;;;;;17.13;7.50;;;8.30;99.90;;;;;;5043361;28;20061;-76
2021/11/03 04:17:00;;;;;;;17.92;8.15;;;8.30;99.90;;;;;;5042577;28;20445;-77
2021/11/03 04:19:25;;;;;;;25.40;7.85;;;8.20;99.90;;;;;;5044718;28;20080;-78
2021/11/03 04:21:51;;;;;;;21.05;8.23;;;8.20;99.90;;;;;;5044642;28;20464;-77
2021/11/03 04:24:17;;;;;;;19.13;7.78;;;8.30;99.90;;;;;;5043963;28;20033;-77
2021/11/03 04:26:52;;;;;;;18.60;6.97;;;8.20;99.90;;;;;;5042725;28;20030;-78
2021/11/03 04:29:19;;;;;;;15.10;7.55;;;8.20;99.90;;;;;;5004633;28;20042;-76
2021/11/03 04:31:46;;;;;;;17.80;8.07;;;8.20;99.90;;;;;;5004701;28;20453;-75
2021/11/03 04:34:12;;;;;;;19.15;7.22;;;8.20;99.90;;;;;;4991245;28;20050;-75
2021/11/03 04:36:37;;;;;;;23.88;7.55;;;8.20;99.90;;;;;;4985135;28;20038;-76
2021/11/03 04:39:07;;;;;;;18.23;8.35;;;8.10;99.90;;;;;;4985001;28;20035;-76
2021/11/03 04:41:34;;;;;;;19.17;7.68;;;8.10;99.90;;;;;;4985257;28;20023;-76
2021/11/03 04:44:00;;;;;;;19.42;7.35;;;8.10;99.90;;;;;;4985172;28;20042;-76
2021/11/03 04:46:26;;;;;;;15.00;6.45;;;8.10;99.90;;;;;;4985134;28;20065;-75
2021/11/03 04:48:52;;;;;;;23.95;6.97;;;8.10;99.90;;;;;;4983825;28;20027;-76
2021/11/03 04:51:18;;;;;;;21.38;8.35;;;8.10;99.90;;;;;;4985057;28;20027;-76
2021/11/03 04:53:44;;;;;;;19.00;8.05;;;8.20;99.90;;;;;;4983457;28;20031;-77
2021/11/03 04:56:13;;;;;;;30.85;8.35;;;8.20;99.90;;;;;;4984622;28;20087;-77
2021/11/03 04:58:41;;;;;;;17.52;7.97;;;8.20;99.90;;;;;;4984702;28;20026;-75
2021/11/03 05:01:07;;;;;;;17.60;6.72;;;8.20;99.90;;;;;;4983652;28;20033;-76
2021/11/03 05:03:33;;;;;;;14.77;7.40;;;8.10;99.90;;;;;;4984986;28;20031;-77
2021/11/03 05:06:00;;;;;;;18.10;7.78;;;8.20;99.90;;;;;;4986040;28;20034;-77
2021/11/03 05:08:27;;;;;;;18.55;8.30;;;8.10;99.90;;;;;;4988281;28;20023;-76
2021/11/03 05:10:53;;;;;;;20.63;7.50;;;8.20;99.90;;;;;;4986971;28;20034;-76
2021/11/03 05:13:18;;;;;;;16.98;7.57;;;8.10;99.90;;;;;;4988319;28;20030;-75
2021/11/03 05:15:44;;;;;;;16.98;7.15;;;8.10;99.90;;;;;;4988086;28;20043;-74
2021/11/03 05:18:10;;;;;;;20.35;8.00;;;8.10;99.90;;;;;;4987049;28;20030;-75
2021/11/03 05:20:35;;;;;;;26.65;8.68;;;8.10;99.90;;;;;;4986629;28;20038;-75
2021/11/03 05:23:02;;;;;;;26.63;8.68;;;8.10;99.90;;;;;;4988026;28;20492;-76
2021/11/03 05:25:29;;;;;;;21.73;8.85;;;8.10;99.90;;;;;;4986738;28;20029;-75
2021/11/03 05:27:57;;;;;;;21.42;8.23;;;8.10;99.90;;;;;;5005179;28;20113;-77
2021/11/03 05:30:25;;;;;;;15.35;7.38;;;8.10;99.90;;;;;;5027256;28;20089;-74
2021/11/03 05:32:52;;;;;;;24.88;8.55;;;8.10;99.90;;;;;;5025559;28;20080;-77
2021/11/03 05:35:17;;;;;;;21.58;8.77;;;8.00;99.90;;;;;;5027050;28;20026;-77
2021/11/03 05:37:52;;;;;;;25.17;9.55;;;8.00;99.90;;;;;;5025625;28;20030;-78
2021/11/03 05:40:21;;;;;;;34.22;9.85;;;8.00;99.90;;;;;;5026791;28;20034;-75
2021/11/03 05:42:47;;;;;;;23.35;8.43;;;8.00;99.90;;;;;;5026754;28;20030;-74
2021/11/03 05:45:13;;;;;;;21.10;9.15;;;7.90;99.90;;;;;;5026658;28;20056;-76
2021/11/03 05:47:39;;;;;;;27.05;10.07;;;7.90;99.90;;;;;;5026807;28;20077;-76
2021/11/03 05:50:07;;;;;;;22.67;9.00;;;7.90;99.90;;;;;;5026907;28;20081;-75
2021/11/03 05:52:32;;;;;;;27.52;9.07;;;7.90;99.90;;;;;;5026768;28;20085;-76
2021/11/03 05:54:59;;;;;;;24.80;9.40;;;7.90;99.90;;;;;;5026711;28;20037;-74
2021/11/03 05:57:30;;;;;;;21.73;9.02;;;7.90;99.90;;;;;;5026779;28;20558;-76
2021/11/03 06:00:04;;;;;;;27.80;9.63;;;7.90;99.90;;;;;;5026522;28;20041;-76
2021/11/03 06:02:30;;;;;;;25.42;9.45;;;7.90;99.90;;;;;;5026623;28;20026;-74
2021/11/03 06:04:56;;;;;;;30.08;8.35;;;7.90;99.90;;;;;;5026686;28;20026;-76
2021/11/03 06:07:21;;;;;;;21.90;8.75;;;7.80;99.90;;;;;;5024796;28;20033;-75
2021/11/03 06:09:47;;;;;;;20.52;8.45;;;7.80;99.90;;;;;;5024722;28;20427;-77
2021/11/03 06:12:14;;;;;;;27.48;9.07;;;7.80;99.90;;;;;;5026138;28;20030;-74
2021/11/03 06:14:39;;;;;;;22.05;8.00;;;7.70;99.90;;;;;;5024645;28;20033;-76
2021/11/03 06:17:06;;;;;;;25.17;8.63;;;7.80;99.90;;;;;;5025716;28;20030;-76
2021/11/03 06:19:31;;;;;;;23.67;8.70;;;7.80;99.90;;;;;;5026058;28;20065;-77
2021/11/03 06:21:58;;;;;;;22.98;10.02;;;7.70;99.90;;;;;;5024631;28;20026;-75
2021/11/03 06:24:24;;;;;;;27.52;9.55;;;7.70;99.90;;;;;;5043140;28;20036;-78
2021/11/03 06:26:51;;;;;;;20.17;9.88;;;7.70;99.90;;;;;;5042373;28;20466;-79
2021/11/03 06:29:16;;;;;;;25.73;10.60;;;7.60;99.90;;;;;;5047238;28;20060;-76
2021/11/03 06:31:42;;;;;;;22.90;10.20;;;7.70;99.90;;;;;;5045696;28;20032;-76
2021/11/03 06:34:08;;;;;;;25.13;9.88;;;7.70;99.90;;;;;;5042354;28;20038;-76
2021/11/03 06:36:36;;;;;;;22.40;8.27;;;7.70;99.90;;;;;;5037769;28;20026;-78
2021/11/03 06:39:10;;;;;;;24.73;9.05;;;7.70;99.90;;;;;;5038890;28;20410;-77
2021/11/03 06:41:38;;;;;;;28.90;9.02;;;7.70;99.90;;;;;;5023276;28;20045;-76
2021/11/03 06:44:05;;;;;;;23.65;9.50;;;7.70;99.90;;;;;;5028668;28;20033;-77
2021/11/03 06:46:40;;;;;;;33.83;9.70;;;7.70;99.90;;;;;;5030301;28;20022;-78
2021/11/03 06:49:06;;;;;;;20.65;8.63;;;7.70;99.90;;;;;;5057549;28;20029;-75
2021/11/03 06:51:33;;;;;;;22.73;8.68;;;7.70;99.90;;;;;;5058457;28;20030;-76
2021/11/03 06:54:00;;;;;;;24.90;10.07;;;7.70;99.90;;;;;;5043681;28;20401;-77
2021/11/03 06:56:33;;;;;;;20.45;8.43;;;7.70;99.90;;;;;;5045030;28;20025;-77
2021/11/03 06:59:00;;;;;;;28.00;9.60;;;7.70;99.90;;;;;;5045992;28;20037;-77
2021/11/03 07:01:28;;;;;;;34.65;10.60;;;7.70;99.90;;;;;;5044042;28;20030;-79
2021/11/03 07:03:56;;;;;;;42.35;9.95;;;7.70;99.90;;;;;;5045088;28;20553;-77
2021/11/03 07:06:23;;;;;;;26.30;10.73;;;7.70;99.90;;;;;;5045288;28;20052;-75
2021/11/03 07:08:51;;;;;;;23.92;10.70;;;7.80;99.90;;;;;;5047266;28;20056;-77
2021/11/03 07:11:18;;;;;;;36.78;10.60;;;7.80;99.90;;;;;;5064711;28;20043;-75
2021/11/03 07:13:44;;;;;;;22.65;10.07;;;7.90;99.90;;;;;;5064787;28;20021;-75
2021/11/03 07:16:12;;;;;;;29.15;10.70;;;7.90;99.90;;;;;;5061547;28;20029;-76
2021/11/03 07:18:37;;;;;;;27.13;11.43;;;7.90;99.90;;;;;;5048446;28;20472;-75
2021/11/03 07:21:03;;;;;;;26.23;10.35;;;7.90;99.90;;;;;;5051268;28;20025;-76
2021/11/03 07:23:30;;;;;;;31.60;10.48;;;7.90;99.90;;;;;;5063300;28;20029;-78
2021/11/03 07:25:56;;;;;;;29.85;10.88;;;7.90;99.90;;;;;;5062800;28;20115;-76
2021/11/03 07:28:22;;;;;;;33.20;12.43;;;7.90;99.90;;;;;;5036798;28;20053;-77
2021/11/03 07:30:48;;;;;;;28.98;9.90;;;7.90;99.90;;;;;;5044795;28;20021;-77
2021/11/03 07:33:15;;;;;;;24.67;9.43;;;8.00;99.90;;;;;;5039255;28;20124;-76
2021/11/03 07:35:41;;;;;;;26.77;10.70;;;8.00;99.90;;;;;;5037998;28;20025;-76
2021/11/03 07:38:07;;;;;;;27.40;9.98;;;8.10;99.90;;;;;;5044612;28;20048;-75
2021/11/03 07:40:48;;;;;;;31.00;11.48;;;8.10;99.90;;;;;;5044327;28;20444;-76
2021/11/03 07:43:17;;;;;;;22.77;9.93;;;8.10;99.90;;;;;;5044528;28;20032;-76
2021/11/03 07:45:44;;;;;;;24.73;9.88;;;8.10;99.90;;;;;;5044859;28;20053;-76
2021/11/03 07:48:11;;;;;;;29.50;10.77;;;8.20;99.90;;;;;;5044347;28;20026;-75
2021/11/03 07:50:41;;;;;;;44.40;10.65;;;8.20;99.90;;;;;;5039185;28;20054;-76
2021/11/03 07:53:08;;;;;;;31.45;11.60;;;8.20;99.90;;;;;;5052001;28;20059;-74
2021/11/03 07:55:34;;;;;;;28.35;9.73;;;8.20;99.90;;;;;;5058699;28;20051;-74
2021/11/03 07:58:01;;;;;;;27.60;11.27;;;8.10;99.90;;;;;;5058778;28;20389;-75
2021/11/03 08:00:34;;;;;;;22.98;10.35;;;8.10;99.90;;;;;;5058381;28;20485;-77
2021/11/03 08:03:00;;;;;;;32.58;11.30;;;8.10;99.90;;;;;;5041328;28;20032;-75
2021/11/03 08:05:28;;;;;;;34.22;11.68;;;8.10;99.90;;;;;;5044179;28;20018;-77
2021/11/03 08:07:59;;;;;;;38.35;11.02;;;8.10;99.90;;;;;;5042988;28;20037;-74
2021/11/03 08:10:26;;;;;;;34.83;12.85;;;8.10;99.90;;;;;;5042611;28;20025;-76
2021/11/03 08:12:55;;;;;;;31.20;11.10;;;8.20;99.90;;;;;;5042770;28;20065;-74
2021/11/03 08:15:21;;;;;;;33.05;12.00;;;8.30;99.90;;;;;;5043591;28;20018;-75
2021/11/03 08:17:47;;;;;;;29.23;12.57;;;8.40;99.90;;;;;;5038389;28;20819;-75
2021/11/03 08:20:18;;;;;;;33.45;11.95;;;8.50;99.90;;;;;;5033962;28;20096;-76
2021/11/03 08:22:43;;;;;;;26.25;11.18;;;8.70;99.90;;;;;;5042154;28;20036;-76
2021/11/03 08:25:09;;;;;;;31.88;11.82;;;8.80;99.90;;;;;;5043019;28;20052;-76
2021/11/03 08:27:35;;;;;;;33.15;11.35;;;9.00;99.90;;;;;;5056326;28;20045;-75
2021/11/03 08:30:04;;;;;;;35.10;11.80;;;9.20;99.90;;;;;;5062480;28;20107;-74
2021/11/03 08:32:33;;;;;;;47.13;13.20;;;9.20;99.90;;;;;;5060780;28;20025;-74
2021/11/03 08:34:59;;;;;;;26.58;11.65;;;9.10;99.90;;;;;;5061975;28;20040;-74
2021/11/03 08:37:36;;;;;;;30.02;11.60;;;9.10;99.90;;;;;;5064118;28;20041;-75
2021/11/03 08:40:08;;;;;;;30.08;11.82;;;9.00;99.90;;;;;;5066473;28;20064;-75
2021/11/03 08:42:34;;;;;;;28.63;10.93;;;8.90;99.90;;;;;;5067383;28;20021;-75
2021/11/03 08:45:00;;;;;;;27.85;11.75;;;8.90;99.90;;;;;;5058153;28;20062;-75
2021/11/03 08:47:29;;;;;;;39.08;16.05;;;8.80;99.90;;;;;;5039378;28;20033;-78
2021/11/03 08:49:57;;;;;;;35.08;13.07;;;8.80;99.90;;;;;;5046656;28;20030;-75
2021/11/03 08:52:23;;;;;;;34.58;13.65;;;8.80;99.90;;;;;;5047720;28;20029;-75
2021/11/03 08:54:49;;;;;;;25.67;10.82;;;8.80;99.90;;;;;;5046009;28;20034;-76
2021/11/03 08:57:19;;;;;;;28.15;11.13;;;8.80;99.90;;;;;;5047620;28;20061;-75
2021/11/03 08:59:46;;;;;;;27.35;11.88;;;8.90;99.90;;;;;;5039017;28;20042;-74
2021/11/03 09:02:11;;;;;;;26.45;11.20;;;8.90;99.90;;;;;;5047112;28;20524;-76
2021/11/03 09:04:38;;;;;;;29.98;12.10;;;8.90;99.90;;;;;;5045625;28;20021;-75
2021/11/03 09:07:11;;;;;;;32.90;12.70;;;9.00;99.90;;;;;;5055679;28;20036;-78
2021/11/03 09:09:44;;;;;;;23.10;10.13;;;9.00;99.90;;;;;;5062091;28;20033;-77
2021/11/03 09:12:20;;;;;;;30.23;11.55;;;9.00;99.90;;;;;;5039013;28;20025;-77
2021/11/03 09:14:57;;;;;;;28.25;10.50;;;9.00;99.90;;;;;;5044956;28;20097;-78
2021/11/03 09:17:27;;;;;;;31.42;11.93;;;9.00;99.90;;;;;;5026508;28;20027;-75
2021/11/03 09:19:54;;;;;;;33.47;10.75;;;9.00;99.90;;;;;;5045309;28;20052;-75
2021/11/03 09:22:20;;;;;;;25.67;11.35;;;9.00;99.90;;;;;;5044552;28;20029;-77
2021/11/03 09:24:57;;;;;;;35.92;13.02;;;9.10;99.90;;;;;;5046591;28;20052;-77
2021/11/03 09:27:23;;;;;;;38.00;11.75;;;9.00;99.90;;;;;;5040657;28;20038;-74
2021/11/03 09:29:51;;;;;;;31.23;12.70;;;9.10;99.90;;;;;;5025625;28;20695;-76
2021/11/03 09:32:21;;;;;;;28.88;11.55;;;9.10;99.90;;;;;;5025363;28;20029;-75
2021/11/03 09:34:48;;;;;;;38.08;12.93;;;9.10;99.90;;;;;;5026604;28;20041;-75
2021/11/03 09:37:16;;;;;;;24.40;10.07;;;9.00;99.90;;;;;;5025607;28;20034;-76
2021/11/03 09:39:48;;;;;;;28.77;11.82;;;9.10;99.90;;;;;;5027310;28;20506;-76
2021/11/03 09:42:24;;;;;;;28.92;11.07;;;9.10;99.90;;;;;;5040205;28;20025;-76
2021/11/03 09:44:53;;;;;;;28.20;11.77;;;9.10;99.90;;;;;;5040730;28;20689;-76
2021/11/03 09:47:42;;;;;;;27.42;10.50;;;9.10;99.90;;;;;;5032199;28;20036;-75
2021/11/03 09:50:19;;;;;;;26.13;12.27;;;9.10;99.90;;;;;;5025856;28;20109;-75
2021/11/03 09:52:52;;;;;;;30.17;11.40;;;9.10;99.90;;;;;;5037111;28;20037;-75
2021/11/03 09:55:24;;;;;;;29.00;12.07;;;9.20;99.90;;;;;;5042335;28;20036;-75
2021/11/03 09:58:21;;;;;;;28.15;11.43;;;9.30;99.90;;;;;;5035749;28;20140;-78
2021/11/03 10:00:59;;;;;;;27.58;11.20;;;9.30;99.90;;;;;;5034946;28;20092;-76
2021/11/03 10:04:05;;;;;;;32.00;12.05;;;9.40;99.90;;;;;;5044016;28;20046;-73
2021/11/03 10:06:49;;;;;;;29.80;10.65;;;9.40;99.90;;;;;;5044242;28;20040;-75
2021/11/03 10:09:15;;;;;;;34.10;11.55;;;9.40;99.90;;;;;;5038487;28;20033;-76
2021/11/03 10:11:46;;;;;;;27.48;10.73;;;9.50;99.90;;;;;;5030976;28;20040;-74
2021/11/03 10:14:12;;;;;;;37.20;13.00;;;9.50;99.90;;;;;;5045278;28;20065;-75
2021/11/03 10:16:47;;;;;;;23.30;11.90;;;9.50;99.90;;;;;;5046022;28;20033;-76
2021/11/03 10:19:13;;;;;;;24.58;10.82;;;9.60;99.90;;;;;;5043228;28;20070;-75
2021/11/03 10:21:41;;;;;;;23.95;11.43;;;9.70;99.90;;;;;;5039721;28;20085;-74
2021/11/03 10:24:13;;;;;;;23.23;10.63;;;9.70;99.90;;;;;;5039283;28;20469;-75
2021/11/03 10:26:57;;;;;;;27.85;11.40;;;9.80;99.90;;;;;;5044897;28;20053;-77
2021/11/03 10:29:36;;;;;;;28.15;11.35;;;10.00;99.90;;;;;;5026262;28;20041;-77
2021/11/03 10:32:19;;;;;;;32.88;13.13;;;10.00;99.90;;;;;;5024842;28;20037;-76
2021/11/03 10:34:49;;;;;;;21.75;10.10;;;10.20;99.90;;;;;;5025489;28;20121;-76
2021/11/03 10:37:33;;;;;;;33.00;11.27;;;10.20;99.90;;;;;;5025897;28;20041;-76
2021/11/03 10:40:22;;;;;;;31.05;11.82;;;10.30;99.90;;;;;;5026303;28;20076;-76
2021/11/03 10:43:03;;;;;;;26.15;10.93;;;10.40;99.90;;;;;;5026010;28;20038;-77
2021/11/03 10:45:38;;;;;;;21.75;9.27;;;10.40;99.90;;;;;;5027248;28;20029;-77
2021/11/03 10:48:22;;;;;;;27.40;10.60;;;10.50;99.90;;;;;;5034813;28;20032;-76
2021/11/03 10:51:12;;;;;;;25.75;10.70;;;10.70;99.90;;;;;;5036425;28;20010;-78
2021/11/03 10:53:41;;;;;;;23.55;10.00;;;10.90;99.90;;;;;;5042766;28;20376;-78
2021/11/03 10:56:31;;;;;;;20.98;8.55;;;11.10;99.90;;;;;;5036135;28;20021;-77
2021/11/03 10:59:33;;;;;;;28.05;9.15;;;11.20;99.90;;;;;;5041923;28;20017;-78
2021/11/03 11:02:26;;;;;;;18.52;8.38;;;11.30;99.90;;;;;;5038960;28;20052;-77
2021/11/03 11:04:56;;;;;;;23.80;9.75;;;11.30;99.90;;;;;;5044748;28;20088;-76
2021/11/03 11:07:24;;;;;;;25.38;9.43;;;11.20;99.90;;;;;;5044618;28;20053;-76
2021/11/03 11:10:13;;;;;;;24.33;8.52;;;11.20;99.90;;;;;;5039783;28;20085;-75
2021/11/03 11:12:43;;;;;;;19.25;8.73;;;11.10;99.90;;;;;;5037970;28;20934;-76
2021/11/03 11:15:15;;;;;;;19.17;9.15;;;11.10;99.90;;;;;;5024386;28;20026;-77
2021/11/03 11:18:28;;;;;;;20.58;7.97;;;11.00;99.90;;;;;;5038743;28;20037;-77
2021/11/03 11:20:57;;;;;;;20.88;9.60;;;11.00;99.90;;;;;;5025025;28;20503;-77
2021/11/03 11:23:50;;;;;;;17.20;8.13;;;11.00;99.90;;;;;;5024375;28;20025;-75
2021/11/03 11:26:32;;;;;;;19.17;8.23;;;11.00;99.90;;;;;;5024271;28;20041;-76
2021/11/03 11:29:27;;;;;;;21.30;9.50;;;11.00;99.90;;;;;;5024455;28;20050;-76
2021/11/03 11:32:22;;;;;;;22.05;8.27;;;11.00;99.90;;;;;;5024728;28;20116;-76
2021/11/03 11:35:21;;;;;;;26.75;10.43;;;11.00;99.90;;;;;;5024462;28;20049;-75
2021/11/03 11:38:07;;;;;;;15.95;6.18;;;11.00;99.90;;;;;;5024356;28;20057;-73
2021/11/03 11:41:03;;;;;;;22.10;8.27;;;11.00;99.90;;;;;;5022765;28;20030;-76
2021/11/03 11:44:04;;;;;;;20.00;9.05;;;10.90;99.90;;;;;;5051880;28;20033;-77
2021/11/03 11:46:32;;;;;;;17.60;8.18;;;10.90;99.90;;;;;;5062969;28;20096;-76
2021/11/03 11:49:22;;;;;;;19.63;7.15;;;10.90;99.90;;;;;;5061991;28;20051;-78
2021/11/03 11:51:53;;;;;;;19.77;9.07;;;10.90;99.90;;;;;;5060651;28;20101;-76
2021/11/03 11:55:00;;;;;;;22.15;8.80;;;10.90;99.90;;;;;;5044242;28;20017;-76
2021/11/03 11:57:30;;;;;;;16.17;7.97;;;10.80;99.90;;;;;;5042704;28;20021;-75
2021/11/03 12:00:08;;;;;;;26.98;9.38;;;10.80;99.90;;;;;;5044072;28;20092;-77
2021/11/03 12:02:35;;;;;;;23.83;9.82;;;10.80;99.90;;;;;;5044114;28;20029;-75
2021/11/03 12:05:25;;;;;;;20.50;9.32;;;10.80;99.90;;;;;;5043857;28;20041;-78
2021/11/03 12:08:20;;;;;;;23.05;10.15;;;10.70;99.90;;;;;;5039599;28;20049;-74
2021/11/03 12:10:55;;;;;;;29.13;10.75;;;10.70;99.90;;;;;;5043565;28;20029;-76
2021/11/03 12:13:32;;;;;;;21.05;9.65;;;10.70;99.90;;;;;;5044368;28;20040;-75
2021/11/03 12:16:07;;;;;;;24.08;10.50;;;10.70;99.90;;;;;;5059134;28;20071;-77
2021/11/03 12:18:46;;;;;;;22.15;8.65;;;10.70;99.90;;;;;;5068711;28;20025;-75
2021/11/03 12:21:24;;;;;;;25.02;9.82;;;10.70;99.90;;;;;;5068407;28;20037;-73
2021/11/03 12:24:05;;;;;;;23.35;9.95;;;10.70;99.90;;;;;;5066238;28;20033;-78
2021/11/03 12:26:39;;;;;;;27.05;10.50;;;10.70;99.90;;;;;;5058513;28;20038;-76
2021/11/03 12:29:17;;;;;;;;;;;10.70;99.90;;;;;;5047947;28;20544;-74
2021/11/03 12:31:42;;;;;;;26.90;10.15;;;10.70;99.90;;;;;;5028547;28;19910;-75
2021/11/03 12:34:08;;;;;;;25.00;9.80;;;10.60;99.90;;;;;;5040384;28;20070;-77
2021/11/03 12:36:47;;;;;;;31.80;10.38;;;10.60;99.90;;;;;;5067332;28;20033;-76
2021/11/03 12:39:30;;;;;;;25.95;9.35;;;10.70;99.90;;;;;;5068244;28;20120;-75
2021/11/03 12:42:17;;;;;;;21.58;9.27;;;10.70;99.90;;;;;;5066595;28;20021;-75
2021/11/03 12:44:49;;;;;;;23.83;8.32;;;10.60;99.90;;;;;;5067835;28;20031;-74
2021/11/03 12:47:29;;;;;;;34.08;10.27;;;10.60;99.90;;;;;;5068029;28;20068;-76
2021/11/03 12:50:08;;;;;;;20.13;7.60;;;10.50;99.90;;;;;;5066451;28;20401;-75
2021/11/03 12:52:41;;;;;;;17.70;8.50;;;10.50;99.90;;;;;;5067034;28;20096;-75
2021/11/03 12:55:20;;;;;;;24.98;9.98;;;10.60;99.90;;;;;;5066804;28;20032;-75
2021/11/03 12:57:46;;;;;;;30.48;11.57;;;10.60;99.90;;;;;;5067692;28;20484;-76
2021/11/03 13:00:16;;;;;;;22.50;9.98;;;10.60;99.90;;;;;;5066070;28;20040;-76
2021/11/03 13:02:50;;;;;;;30.13;10.02;;;10.60;99.90;;;;;;5066330;28;20071;-74
2021/11/03 13:05:28;;;;;;;33.55;12.43;;;10.60;99.90;;;;;;5066173;28;20029;-75
2021/11/03 13:07:54;;;;;;;24.80;9.88;;;10.50;99.90;;;;;;5067683;28;20053;-75
2021/11/03 13:10:45;;;;;;;27.90;10.48;;;10.50;99.90;;;;;;5065583;28;20056;-75
2021/11/03 13:13:14;;;;;;;23.38;9.20;;;10.50;99.90;;;;;;5065748;28;20032;-76